Time;durP1;ratioP1;P1;durP2;ratioP2;P2;SDS_P1;SDS_P2;PMS_P1;PMS_P2;Temp;Humidity;BMP_temperature;BMP_pressure;BME280_temperature;BME280_humidity;BME280_pressure;Samples;Min_cycle;Max_cycle;Signal;HPM_P1;HPM_P2
2021/06/26 00:01:59;;;;;;;17.02;14.15;;;;;;;14.21;49.38;101420.34;4824621;29;99336;-72
2021/06/26 00:04:27;;;;;;;17.25;13.15;;;;;;;14.17;49.15;101421.16;4823864;29;97901;-72
2021/06/26 00:06:55;;;;;;;17.50;13.43;;;;;;;14.17;49.17;101421.16;4824328;29;98012;-73
2021/06/26 00:09:22;;;;;;;17.25;14.10;;;;;;;14.13;49.55;101422.88;4827342;29;98826;-72
2021/06/26 00:11:51;;;;;;;19.40;14.18;;;;;;;14.10;49.48;101422.81;4825263;29;99215;-72
2021/06/26 00:14:19;;;;;;;23.02;16.98;;;;;;;14.47;49.56;101424.31;4822771;29;97631;-73
2021/06/26 00:16:47;;;;;;;19.75;16.35;;;;;;;14.61;49.67;101415.63;4838441;28;96800;-72
2021/06/26 00:19:15;;;;;;;17.50;14.13;;;;;;;14.27;50.12;101417.75;4825014;29;101481;-73
2021/06/26 00:21:43;;;;;;;15.90;13.30;;;;;;;14.17;50.25;101419.38;4824596;29;100233;-73
2021/06/26 00:24:11;;;;;;;16.90;13.73;;;;;;;14.09;50.47;101415.69;4825777;29;96836;-72
2021/06/26 00:26:39;;;;;;;19.10;15.77;;;;;;;14.46;50.27;101420.75;4823463;29;96925;-73
2021/06/26 00:29:08;;;;;;;19.45;16.42;;;;;;;14.57;50.22;101420.94;4808369;29;100623;-72
2021/06/26 00:31:35;;;;;;;18.42;12.88;;;;;;;14.21;50.55;101418.53;4823540;29;98934;-73
2021/06/26 00:34:03;;;;;;;16.13;12.82;;;;;;;14.04;50.79;101412.91;4824865;29;97612;-71
2021/06/26 00:36:31;;;;;;;15.98;12.02;;;;;;;14.03;50.86;101415.56;4824954;29;97532;-71
2021/06/26 00:38:59;;;;;;;16.20;12.07;;;;;;;14.01;50.73;101411.97;4824232;29;100909;-72
2021/06/26 00:41:27;;;;;;;15.82;12.98;;;;;;;13.97;50.47;101416.34;4824963;29;100645;-72
2021/06/26 00:43:55;;;;;;;17.02;13.65;;;;;;;13.92;50.56;101417.16;4824340;29;97725;-72
2021/06/26 00:46:24;;;;;;;18.33;12.82;;;;;;;13.87;50.66;101414.41;4807418;29;99796;-72
2021/06/26 00:48:52;;;;;;;17.30;13.27;;;;;;;13.82;50.83;101416.09;4825161;29;100354;-72
2021/06/26 00:51:19;;;;;;;15.57;12.77;;;;;;;13.79;50.70;101410.69;4824937;29;99252;-72
2021/06/26 00:53:47;;;;;;;17.88;13.48;;;;;;;13.76;50.77;101415.97;4809089;29;97942;-72
2021/06/26 00:56:15;;;;;;;16.40;13.68;;;;;;;13.73;50.68;101418.56;4823510;29;97033;-71
2021/06/26 00:58:43;;;;;;;17.13;13.15;;;;;;;13.71;50.78;101417.66;4825348;29;99501;-72
2021/06/26 01:01:12;;;;;;;17.50;13.88;;;;;;;13.69;50.54;101413.13;4808708;29;97716;-72
2021/06/26 01:03:42;;;;;;;21.77;13.13;;;;;;;13.66;50.75;101411.28;4824908;29;97716;-72
2021/06/26 01:06:11;;;;;;;17.55;13.70;;;;;;;13.64;50.77;101418.38;4839466;28;97307;-72
2021/06/26 01:08:39;;;;;;;16.00;13.02;;;;;;;13.61;50.82;101402.28;4808645;29;99898;-72
2021/06/26 01:11:06;;;;;;;17.73;14.07;;;;;;;13.59;50.89;101405.81;4824442;29;98028;-72
2021/06/26 01:13:34;;;;;;;18.02;14.65;;;;;;;13.56;50.68;101400.41;4823989;29;97734;-72
2021/06/26 01:16:02;;;;;;;17.55;14.77;;;;;;;13.56;50.78;101398.66;4824140;29;97857;-73
2021/06/26 01:18:30;;;;;;;18.48;14.05;;;;;;;13.54;50.91;101405.72;4823167;29;100978;-73
2021/06/26 01:20:59;;;;;;;19.95;15.05;;;;;;;13.51;51.07;101400.34;4824206;29;100275;-72
2021/06/26 01:23:29;;;;;;;19.70;14.40;;;;;;;13.51;51.03;101403.00;4824378;29;97581;-72
2021/06/26 01:25:57;;;;;;;17.10;13.50;;;;;;;13.49;51.04;101407.44;4816129;29;98033;-71
2021/06/26 01:28:24;;;;;;;17.95;14.13;;;;;;;13.48;51.05;101416.31;4823802;29;99366;-72
2021/06/26 01:30:52;;;;;;;16.10;12.93;;;;;;;13.46;51.10;101403.78;4824553;29;99405;-72
2021/06/26 01:33:20;;;;;;;18.48;13.88;;;;;;;13.46;51.18;101401.13;4824445;29;97473;-72
2021/06/26 01:35:48;;;;;;;19.42;14.20;;;;;;;13.44;51.26;101402.88;4824691;29;96922;-72
2021/06/26 01:38:16;;;;;;;16.63;13.65;;;;;;;13.43;51.08;101403.72;4824575;29;98175;-70
2021/06/26 01:40:45;;;;;;;19.37;16.70;;;;;;;13.79;51.27;101404.44;4819897;29;99240;-72
2021/06/26 01:43:13;;;;;;;15.93;13.25;;;;;;;13.56;51.69;101404.00;4823522;29;97509;-72
2021/06/26 01:45:41;;;;;;;17.10;14.10;;;;;;;13.52;51.77;101401.22;4824132;29;97775;-71
2021/06/26 01:48:09;;;;;;;21.27;14.38;;;;;;;13.50;51.67;101400.28;4823030;29;100780;-71
2021/06/26 01:50:37;;;;;;;19.77;14.23;;;;;;;13.45;51.59;101402.88;4823812;29;97789;-71
2021/06/26 01:53:05;;;;;;;17.08;13.70;;;;;;;13.44;51.56;101406.41;4824637;29;97945;-72
2021/06/26 01:55:33;;;;;;;20.80;14.07;;;;;;;13.42;51.51;101404.59;4822884;29;97683;-72
2021/06/26 01:58:02;;;;;;;17.55;13.80;;;;;;;13.33;51.76;101402.63;4823739;29;96876;-72
2021/06/26 02:00:30;;;;;;;17.70;12.75;;;;;;;13.32;51.63;101399.94;4825520;29;97624;-70
2021/06/26 02:02:58;;;;;;;16.88;13.45;;;;;;;13.28;51.72;101398.06;4814358;29;97806;-72
2021/06/26 02:05:26;;;;;;;19.55;14.05;;;;;;;13.26;51.57;101406.06;4821483;28;98960;-71
2021/06/26 02:07:54;;;;;;;18.90;13.75;;;;;;;13.25;51.66;101400.69;4816790;29;97709;-72
2021/06/26 02:10:22;;;;;;;18.23;13.88;;;;;;;13.20;51.70;101408.63;4814969;29;98145;-71
2021/06/26 02:12:50;;;;;;;17.17;13.68;;;;;;;13.15;51.71;101408.50;4815093;29;97019;-72
2021/06/26 02:15:19;;;;;;;17.58;13.15;;;;;;;13.12;51.72;101407.56;4817399;29;97385;-72
2021/06/26 02:17:47;;;;;;;17.90;13.90;;;;;;;13.11;51.76;101397.75;4817817;29;97584;-72
2021/06/26 02:20:15;;;;;;;17.33;12.82;;;;;;;13.17;51.61;101405.88;4815697;29;97915;-74
2021/06/26 02:22:43;;;;;;;19.50;13.75;;;;;;;13.17;51.50;101405.88;4815450;29;96977;-73
2021/06/26 02:25:12;;;;;;;19.00;13.90;;;;;;;13.16;51.54;101412.09;4817336;29;97358;-73
2021/06/26 02:27:39;;;;;;;16.05;13.25;;;;;;;13.13;51.63;101409.34;4815426;29;97008;-73
2021/06/26 02:30:09;;;;;;;18.17;12.82;;;;;;;13.14;51.58;101416.50;4813741;29;99314;-72
2021/06/26 02:32:39;;;;;;;16.02;13.20;;;;;;;13.13;51.57;101414.69;4819036;29;97419;-72
2021/06/26 02:35:08;;;;;;;16.45;13.63;;;;;;;13.12;51.61;101412.91;4819381;29;98428;-72
2021/06/26 02:37:36;;;;;;;16.77;13.30;;;;;;;13.06;51.61;101420.78;4822351;29;98849;-71
2021/06/26 02:40:04;;;;;;;19.23;13.75;;;;;;;13.06;51.63;101413.66;4816290;29;99140;-71
2021/06/26 02:42:32;;;;;;;17.95;13.30;;;;;;;13.03;51.72;101416.28;4836391;28;98113;-72
2021/06/26 02:45:00;;;;;;;16.48;13.02;;;;;;;13.09;51.42;101412.84;4819320;29;97792;-71
2021/06/26 02:47:28;;;;;;;17.70;13.55;;;;;;;13.11;51.55;101419.13;4803173;29;98630;-71
2021/06/26 02:49:57;;;;;;;16.15;12.70;;;;;;;13.05;51.57;101413.66;4823662;29;97690;-72
2021/06/26 02:52:25;;;;;;;19.92;14.23;;;;;;;13.02;51.74;101417.13;4821454;29;97881;-71
2021/06/26 02:54:52;;;;;;;18.42;14.23;;;;;;;13.03;51.65;101421.63;4822541;29;97180;-72
2021/06/26 02:57:20;;;;;;;17.90;13.93;;;;;;;13.04;51.70;101422.50;4819745;29;98081;-72
2021/06/26 02:59:48;;;;;;;17.23;13.52;;;;;;;13.06;51.81;101428.78;4806486;29;99510;-72
2021/06/26 03:02:16;;;;;;;19.00;14.00;;;;;;;13.10;51.54;101444.03;4805229;29;98285;-72
2021/06/26 03:04:44;;;;;;;18.23;13.55;;;;;;;13.08;51.69;101443.09;4819491;29;98046;-71
2021/06/26 03:07:13;;;;;;;17.85;13.65;;;;;;;13.05;51.67;101451.06;4820480;29;98760;-72
2021/06/26 03:09:41;;;;;;;17.40;14.43;;;;;;;13.08;51.68;101438.66;4821135;29;100822;-73
2021/06/26 03:12:10;;;;;;;20.73;14.63;;;;;;;13.08;51.67;101440.41;4821100;29;97507;-73
2021/06/26 03:14:38;;;;;;;17.05;13.52;;;;;;;13.06;51.57;101434.13;4823393;29;97757;-72
2021/06/26 03:17:05;;;;;;;16.13;13.52;;;;;;;13.05;51.57;101433.25;4821068;29;100580;-73
2021/06/26 03:19:34;;;;;;;21.17;14.60;;;;;;;13.06;51.66;101434.13;4822358;29;97679;-72
2021/06/26 03:22:01;;;;;;;17.45;13.27;;;;;;;13.04;51.59;101439.44;4820603;29;99443;-73
2021/06/26 03:24:30;;;;;;;20.38;14.07;;;;;;;13.05;51.78;101437.69;4822069;29;97927;-72
2021/06/26 03:26:58;;;;;;;17.83;13.85;;;;;;;13.04;51.63;101438.53;4822096;29;97935;-72
2021/06/26 03:29:26;;;;;;;18.33;14.85;;;;;;;13.04;51.58;101436.78;4820086;29;100468;-72
2021/06/26 03:31:54;;;;;;;19.17;13.88;;;;;;;13.04;51.64;101443.88;4821238;29;97178;-71
2021/06/26 03:34:21;;;;;;;20.25;14.07;;;;;;;13.04;51.74;101449.22;4821838;29;98058;-72
2021/06/26 03:36:49;;;;;;;19.60;15.18;;;;;;;13.05;51.81;101448.38;4821994;29;97792;-72
2021/06/26 03:39:17;;;;;;;21.05;15.07;;;;;;;13.06;51.67;101450.16;4805799;29;100648;-72
2021/06/26 03:41:46;;;;;;;18.65;14.32;;;;;;;13.07;51.81;101447.56;4821303;29;97706;-72
2021/06/26 03:44:14;;;;;;;20.13;15.45;;;;;;;13.08;51.70;101448.44;4821202;29;97259;-73
2021/06/26 03:46:41;;;;;;;20.27;15.43;;;;;;;13.07;51.72;101449.31;4820185;29;99060;-72
2021/06/26 03:49:10;;;;;;;21.90;15.75;;;;;;;13.08;51.71;101457.38;4820646;29;99726;-72
2021/06/26 03:51:39;;;;;;;20.42;15.60;;;;;;;13.09;51.79;101458.28;4824406;29;97593;-72
2021/06/26 03:54:08;;;;;;;18.63;15.02;;;;;;;13.06;51.76;101463.53;4826751;29;97038;-71
2021/06/26 03:56:36;;;;;;;20.38;15.70;;;;;;;13.08;51.90;101464.47;4823084;29;98867;-72
2021/06/26 03:59:05;;;;;;;20.70;16.13;;;;;;;13.08;51.82;101461.78;4823777;29;100868;-72
2021/06/26 04:01:33;;;;;;;23.00;15.60;;;;;;;13.10;51.73;101460.06;4838062;28;97257;-72
2021/06/26 04:04:01;;;;;;;20.48;15.82;;;;;;;13.09;51.74;101466.28;4823976;29;97761;-71
2021/06/26 04:06:28;;;;;;;21.33;16.55;;;;;;;13.10;51.79;101470.75;4807071;29;100430;-71
2021/06/26 04:08:56;;;;;;;19.10;16.40;;;;;;;13.11;51.67;101472.56;4823431;29;100627;-72
2021/06/26 04:11:24;;;;;;;21.13;15.45;;;;;;;13.13;51.78;101470.81;4824128;29;96968;-71
2021/06/26 04:13:52;;;;;;;20.35;14.43;;;;;;;13.13;51.82;101474.38;4824911;29;98110;-71
2021/06/26 04:16:21;;;;;;;19.48;15.50;;;;;;;13.16;51.84;101468.22;4823622;29;99621;-72
2021/06/26 04:18:48;;;;;;;19.40;14.95;;;;;;;13.13;51.79;101471.72;4807501;29;100897;-72
2021/06/26 04:21:16;;;;;;;18.85;15.80;;;;;;;13.14;51.93;101476.22;4825373;28;98102;-71
2021/06/26 04:23:44;;;;;;;19.58;14.82;;;;;;;13.15;51.96;101478.00;4822504;29;97277;-72
2021/06/26 04:26:12;;;;;;;23.27;15.65;;;;;;;13.23;51.81;101478.16;4823643;29;100189;-71
2021/06/26 04:28:40;;;;;;;21.70;14.93;;;;;;;13.20;51.94;101483.47;4823678;29;100572;-72
2021/06/26 04:31:08;;;;;;;26.73;15.25;;;;;;;13.23;51.88;101477.25;4836990;28;97896;-72
2021/06/26 04:33:37;;;;;;;21.10;15.13;;;;;;;13.28;51.97;101481.84;4823573;29;97539;-72
2021/06/26 04:36:11;;;;;;;20.67;14.57;;;;;;;13.32;51.85;101486.38;4822371;29;99565;-72
2021/06/26 04:38:39;;;;;;;19.10;15.32;;;;;;;13.33;51.81;101480.16;4817855;29;99865;-72
2021/06/26 04:41:07;;;;;;;19.42;15.20;;;;;;;13.35;51.75;101485.56;4807779;29;97465;-73
2021/06/26 04:43:35;;;;;;;20.98;16.38;;;;;;;13.37;51.77;101486.50;4824406;29;97499;-72
2021/06/26 04:46:03;;;;;;;23.75;15.57;;;;;;;13.31;51.95;101484.59;4819733;29;99907;-72
2021/06/26 04:48:31;;;;;;;22.83;15.95;;;;;;;13.32;51.96;101483.72;4787283;29;102051;-73
2021/06/26 04:51:00;;;;;;;20.90;16.23;;;;;;;13.31;51.96;101483.69;4823610;29;97852;-72
2021/06/26 04:53:29;;;;;;;18.83;15.57;;;;;;;13.34;51.96;101489.09;4826568;29;97939;-71
2021/06/26 04:55:57;;;;;;;22.23;16.45;;;;;;;13.33;52.12;101492.63;4825078;29;99157;-71
2021/06/26 04:58:25;;;;;;;20.63;15.98;;;;;;;13.38;51.99;101488.28;4824005;29;99378;-74
2021/06/26 05:00:57;;;;;;;25.60;16.80;;;;;;;13.38;52.10;101494.53;4825489;29;97716;-69
2021/06/26 05:03:25;;;;;;;24.73;17.13;;;;;;;13.40;52.12;101500.81;4809749;29;98018;-73
2021/06/26 05:05:53;;;;;;;26.63;17.88;;;;;;;13.47;51.91;101494.72;4829983;28;99264;-73
2021/06/26 05:08:22;;;;;;;22.25;16.90;;;;;;;13.43;52.03;101494.63;4838149;28;100673;-72
2021/06/26 05:10:50;;;;;;;22.38;16.98;;;;;;;13.49;52.03;101502.78;4829027;29;98630;-72
2021/06/26 05:13:18;;;;;;;27.08;16.08;;;;;;;13.46;51.92;101500.06;4823951;29;97051;-73
2021/06/26 05:15:47;;;;;;;35.60;24.33;;;;;;;13.54;51.72;101501.09;4822217;29;99576;-73
2021/06/26 05:18:14;;;;;;;26.95;20.20;;;;;;;13.43;52.12;101492.84;4823573;29;99197;-73
2021/06/26 05:20:43;;;;;;;44.28;29.40;;;;;;;13.41;52.05;101491.91;4824227;29;98743;-73
2021/06/26 05:23:12;;;;;;;29.98;19.48;;;;;;;13.31;52.32;101492.63;4824065;29;98153;-72
2021/06/26 05:25:42;;;;;;;32.90;20.45;;;;;;;13.27;52.42;101493.41;4806644;29;99459;-71
2021/06/26 05:28:10;;;;;;;36.53;22.92;;;;;;;13.29;52.34;101494.34;4823009;29;99718;-72
2021/06/26 05:30:38;;;;;;;33.90;23.52;;;;;;;13.31;52.38;101489.94;4823345;29;97767;-72
2021/06/26 05:33:07;;;;;;;33.80;22.23;;;;;;;13.39;52.31;101499.00;4821534;29;97139;-73
2021/06/26 05:35:35;;;;;;;26.20;19.35;;;;;;;13.52;51.95;101494.81;4823384;29;100642;-72
2021/06/26 05:38:03;;;;;;;30.90;19.98;;;;;;;13.52;52.01;101495.72;4824093;29;98080;-72
2021/06/26 05:40:30;;;;;;;28.08;20.40;;;;;;;13.60;51.74;101499.47;4806511;29;97977;-72
2021/06/26 05:43:00;;;;;;;26.98;19.08;;;;;;;13.70;51.59;101496.06;4824871;29;97308;-72
2021/06/26 05:45:28;;;;;;;24.55;18.30;;;;;;;13.75;51.39;101499.75;4822638;29;97833;-72
2021/06/26 05:47:56;;;;;;;24.15;17.10;;;;;;;13.83;51.04;101498.16;4821213;29;99302;-74
2021/06/26 05:50:24;;;;;;;22.02;17.58;;;;;;;13.86;51.05;101497.34;4822882;29;97420;-72
2021/06/26 05:52:53;;;;;;;21.20;16.58;;;;;;;13.91;50.93;101512.59;4822931;29;98265;-73
2021/06/26 05:55:21;;;;;;;20.48;15.77;;;;;;;14.05;50.69;101503.03;4818900;29;98007;-72
2021/06/26 05:57:50;;;;;;;19.60;16.17;;;;;;;14.09;50.55;101507.59;4832299;28;97680;-72
2021/06/26 06:00:21;;;;;;;21.45;16.17;;;;;;;14.09;50.20;101502.22;4806390;29;98794;-71
2021/06/26 06:02:49;;;;;;;20.83;15.98;;;;;;;14.15;50.15;101510.34;4813740;29;97919;-72
2021/06/26 06:05:17;;;;;;;20.25;16.17;;;;;;;14.18;50.30;101509.53;4822491;29;98994;-72
2021/06/26 06:07:46;;;;;;;20.23;15.98;;;;;;;14.23;49.92;101510.50;4821710;29;99237;-72
2021/06/26 06:10:16;;;;;;;19.20;15.23;;;;;;;14.24;50.26;101508.72;4821690;29;97241;-72
2021/06/26 06:12:45;;;;;;;20.77;15.77;;;;;;;14.26;50.08;101509.66;4826652;29;97383;-73
2021/06/26 06:15:13;;;;;;;20.27;15.82;;;;;;;14.25;50.10;101502.47;4838119;28;101070;-72
2021/06/26 06:17:42;;;;;;;33.25;24.98;;;;;;;14.14;50.19;101504.97;4825398;29;99880;-72
2021/06/26 06:20:11;;;;;;;43.53;33.80;;;;;;;14.27;50.26;101507.00;4825762;29;97275;-72
2021/06/26 06:22:38;;;;;;;23.30;18.52;;;;;;;14.21;50.17;101512.25;4819839;29;97683;-72
2021/06/26 06:25:10;;;;;;;22.42;17.02;;;;;;;14.33;49.90;101515.16;4808256;29;99475;-72
2021/06/26 06:27:40;;;;;;;21.98;17.17;;;;;;;14.35;49.89;101518.75;4807258;29;100470;-73
2021/06/26 06:30:12;;;;;;;20.05;16.00;;;;;;;14.40;50.12;101513.47;4822348;29;96888;-72
2021/06/26 06:32:40;;;;;;;20.33;17.15;;;;;;;14.39;50.05;101514.34;4823479;29;99092;-73
2021/06/26 06:35:10;;;;;;;22.58;16.02;;;;;;;14.39;49.78;101517.03;4822262;29;98849;-73
2021/06/26 06:37:38;;;;;;;18.23;15.10;;;;;;;14.40;50.09;101519.72;4822996;29;99154;-72
2021/06/26 06:40:08;;;;;;;23.90;16.33;;;;;;;14.47;49.69;101520.72;4821575;29;98136;-73
2021/06/26 06:42:37;;;;;;;18.42;14.38;;;;;;;14.53;49.51;101526.19;4822205;29;97300;-73
2021/06/26 06:45:06;;;;;;;15.88;13.95;;;;;;;14.62;49.43;101531.75;4822900;29;99991;-72
2021/06/26 06:47:34;;;;;;;20.05;15.95;;;;;;;14.69;49.28;101529.19;4837090;28;98042;-72
2021/06/26 06:50:02;;;;;;;17.63;14.52;;;;;;;14.77;49.10;101521.28;4821030;29;97216;-72
2021/06/26 06:52:31;;;;;;;20.52;15.75;;;;;;;14.83;48.91;101524.94;4821742;29;97663;-72
2021/06/26 06:54:59;;;;;;;24.02;16.98;;;;;;;14.84;48.80;101515.13;4819035;29;98137;-72
2021/06/26 06:57:27;;;;;;;16.95;15.15;;;;;;;14.82;48.78;101514.19;4818440;29;98062;-72
2021/06/26 06:59:55;;;;;;;24.90;18.13;;;;;;;14.89;49.06;101514.31;4821095;29;97560;-72
2021/06/26 07:02:23;;;;;;;22.67;16.60;;;;;;;14.95;48.77;101516.19;4823211;29;97766;-72
2021/06/26 07:04:51;;;;;;;19.98;16.23;;;;;;;15.00;48.46;101512.69;4822307;29;98099;-69
2021/06/26 07:07:19;;;;;;;37.97;27.95;;;;;;;15.06;48.73;101517.25;4821907;29;97677;-68
2021/06/26 07:09:48;;;;;;;25.98;19.67;;;;;;;15.13;48.36;101511.09;4823687;29;97326;-73
2021/06/26 07:12:15;;;;;;;20.10;15.73;;;;;;;15.19;48.04;101518.31;4819946;29;98798;-72
2021/06/26 07:14:43;;;;;;;24.08;16.35;;;;;;;15.25;48.31;101515.75;4820801;29;97739;-71
2021/06/26 07:17:11;;;;;;;21.02;16.23;;;;;;;15.33;47.88;101519.44;4819580;29;99449;-71
2021/06/26 07:19:39;;;;;;;20.48;17.20;;;;;;;15.32;48.10;101523.00;4804540;29;97205;-70
2021/06/26 07:22:07;;;;;;;19.55;16.20;;;;;;;15.27;48.09;101516.63;4820273;29;98055;-70
2021/06/26 07:24:35;;;;;;;22.95;17.02;;;;;;;15.18;48.08;101520.09;4822599;29;99410;-71
2021/06/26 07:27:05;;;;;;;19.25;16.42;;;;;;;15.19;48.26;101516.56;4822530;29;97802;-73
2021/06/26 07:29:32;;;;;;;24.25;17.90;;;;;;;15.25;48.07;101508.56;4838991;28;96887;-72
2021/06/26 07:32:01;;;;;;;24.88;18.65;;;;;;;15.32;47.69;101507.78;4823639;28;97535;-72
2021/06/26 07:34:28;;;;;;;22.65;17.83;;;;;;;15.40;47.94;101505.22;4824915;29;99247;-72
2021/06/26 07:36:56;;;;;;;25.90;18.58;;;;;;;15.48;47.97;101509.81;4824778;29;97903;-72
2021/06/26 07:39:24;;;;;;;26.35;21.30;;;;;;;15.58;47.39;101498.31;4824489;29;97311;-69
2021/06/26 07:41:52;;;;;;;23.15;18.50;;;;;;;15.64;47.53;101500.16;4824330;29;97250;-71
2021/06/26 07:44:22;;;;;;;19.85;15.40;;;;;;;15.70;47.37;101506.50;4807933;29;100761;-70
2021/06/26 07:46:50;;;;;;;21.17;15.98;;;;;;;15.73;47.10;101502.94;4823813;29;97433;-71
2021/06/26 07:49:18;;;;;;;17.65;14.75;;;;;;;15.77;47.18;101497.66;4823590;29;97419;-72
2021/06/26 07:51:46;;;;;;;19.48;16.05;;;;;;;15.81;46.76;101501.28;4823907;29;98015;-72
2021/06/26 07:54:16;;;;;;;23.60;17.52;;;;;;;15.86;46.94;101497.75;4823655;29;97743;-72
2021/06/26 07:56:44;;;;;;;20.63;16.60;;;;;;;15.89;47.05;101488.81;4808741;29;99317;-72
2021/06/26 07:59:12;;;;;;;17.48;14.32;;;;;;;15.95;46.51;101495.16;4807952;29;97710;-73
2021/06/26 08:01:43;;;;;;;16.95;14.85;;;;;;;15.98;46.58;101488.91;4808458;29;96883;-73
2021/06/26 08:04:11;;;;;;;21.50;17.63;;;;;;;16.03;46.47;101490.78;4823285;29;97675;-73
2021/06/26 08:06:39;;;;;;;18.83;14.52;;;;;;;16.09;46.33;101479.22;4824522;29;99268;-72
2021/06/26 08:09:07;;;;;;;16.38;13.40;;;;;;;16.13;46.38;101483.72;4826630;29;97388;-72
2021/06/26 08:11:35;;;;;;;17.27;14.68;;;;;;;16.15;45.85;101483.75;4840544;28;98906;-73
2021/06/26 08:14:03;;;;;;;18.40;13.77;;;;;;;16.11;45.94;101493.56;4825002;29;99355;-73
2021/06/26 08:16:31;;;;;;;16.42;14.07;;;;;;;16.10;46.22;101484.59;4827193;29;98406;-74
2021/06/26 08:19:00;;;;;;;16.30;13.02;;;;;;;16.17;46.19;101490.03;4828081;29;97141;-73
2021/06/26 08:21:30;;;;;;;14.43;12.77;;;;;;;16.23;45.87;101487.41;4831153;29;98272;-71
2021/06/26 08:23:58;;;;;;;15.15;13.40;;;;;;;16.33;45.95;101483.91;4828742;29;100293;-71
2021/06/26 08:26:26;;;;;;;16.58;12.57;;;;;;;16.32;45.30;101476.75;4825554;29;97456;-72
2021/06/26 08:28:53;;;;;;;14.98;13.38;;;;;;;16.38;45.71;101483.06;4803495;29;97139;-71
2021/06/26 08:31:21;;;;;;;16.65;13.63;;;;;;;16.34;45.32;101485.72;4822617;29;98154;-71
2021/06/26 08:33:49;;;;;;;18.55;14.05;;;;;;;16.45;45.31;101484.03;4822287;29;98046;-72
2021/06/26 08:36:18;;;;;;;16.17;13.88;;;;;;;16.47;45.24;101483.13;4823887;29;97567;-71
2021/06/26 08:38:46;;;;;;;22.30;14.55;;;;;;;16.55;44.91;101473.34;4824157;29;97300;-72
2021/06/26 08:41:17;;;;;;;14.38;12.80;;;;;;;16.63;44.59;101477.00;4837333;28;97448;-72
2021/06/26 08:43:45;;;;;;;11.90;10.70;;;;;;;16.68;44.57;101479.72;4820551;29;99763;-72
2021/06/26 08:46:14;;;;;;;12.35;11.02;;;;;;;16.75;44.39;101479.81;4821207;29;97841;-73
2021/06/26 08:48:42;;;;;;;12.38;11.07;;;;;;;16.77;43.73;101477.13;4814172;29;98152;-71
2021/06/26 08:51:10;;;;;;;18.10;12.80;;;;;;;16.77;43.80;101469.97;4807325;29;97893;-72
2021/06/26 08:53:39;;;;;;;18.00;13.80;;;;;;;16.72;43.73;101474.44;4821160;29;99437;-73
2021/06/26 08:56:17;;;;;;;14.63;12.70;;;;;;;16.76;43.80;101473.53;4806050;29;101046;-72
2021/06/26 08:58:51;;;;;;;13.48;10.95;;;;;;;16.69;43.04;101479.72;4807445;29;97202;-74
2021/06/26 09:01:24;;;;;;;15.20;11.73;;;;;;;16.77;43.07;101469.06;4823219;29;97157;-73
2021/06/26 09:04:03;;;;;;;10.73;9.32;;;;;;;16.77;42.57;101469.97;4823522;29;99671;-77
2021/06/26 09:06:33;;;;;;;11.40;9.40;;;;;;;16.86;42.84;101471.81;4825740;29;97589;-74
2021/06/26 09:09:03;;;;;;;11.48;10.27;;;;;;;16.95;42.60;101470.09;4808006;29;97017;-73
2021/06/26 09:11:30;;;;;;;11.18;10.10;;;;;;;17.02;42.47;101462.94;4822859;29;97432;-74
2021/06/26 09:13:58;;;;;;;13.13;10.73;;;;;;;17.11;42.34;101465.66;4823372;29;100741;-79
2021/06/26 09:16:26;;;;;;;11.40;9.98;;;;;;;17.13;42.10;101469.28;4824732;29;97980;-74
2021/06/26 09:18:56;;;;;;;11.40;9.57;;;;;;;17.24;41.87;101472.91;4823319;29;97910;-74
2021/06/26 09:21:29;;;;;;;12.57;11.27;;;;;;;17.34;41.61;101461.31;4822838;29;97321;-76
2021/06/26 09:23:59;;;;;;;14.82;13.23;;;;;;;17.42;41.59;101462.25;4821922;29;97620;-77
2021/06/26 09:26:29;;;;;;;11.80;9.48;;;;;;;17.50;41.59;101465.91;4806718;29;99063;-76
2021/06/26 09:28:57;;;;;;;10.23;9.23;;;;;;;17.56;41.32;101467.72;4823299;29;97411;-76
2021/06/26 09:31:24;;;;;;;14.20;10.20;;;;;;;17.63;41.27;101465.06;4824873;29;97278;-74
2021/06/26 09:33:58;;;;;;;10.70;9.60;;;;;;;17.67;40.94;101461.47;4796717;29;100106;-75
2021/06/26 09:36:26;;;;;;;11.55;10.32;;;;;;;17.71;40.96;101457.00;4819196;28;101594;-76
2021/06/26 09:38:56;;;;;;;11.30;10.20;;;;;;;17.74;40.91;101457.91;4816944;29;97549;-78
2021/06/26 09:41:24;;;;;;;12.43;10.07;;;;;;;17.79;40.78;101455.19;4819108;29;97356;-77
2021/06/26 09:43:53;;;;;;;12.10;11.00;;;;;;;17.79;40.67;101453.41;4821547;29;99696;-74
2021/06/26 09:46:22;;;;;;;11.75;10.52;;;;;;;17.80;40.57;101463.28;4818709;29;98803;-81
2021/06/26 09:48:52;;;;;;;13.45;11.63;;;;;;;17.82;40.23;101455.22;4808741;29;97854;-77
2021/06/26 09:51:22;;;;;;;11.18;10.07;;;;;;;17.84;40.39;101457.00;4810283;29;97472;-77
2021/06/26 09:53:55;;;;;;;9.90;8.95;;;;;;;17.89;40.12;101451.66;4819080;29;100604;-80
2021/06/26 09:56:23;;;;;;;11.32;10.23;;;;;;;17.94;40.52;101453.47;4807773;29;99241;-83
2021/06/26 09:58:54;;;;;;;12.75;10.90;;;;;;;17.96;38.68;101442.69;4824012;29;98051;-76
2021/06/26 10:01:22;;;;;;;11.73;10.52;;;;;;;17.98;39.90;101447.16;4807213;29;97498;-79
2021/06/26 10:04:05;;;;;;;10.73;9.63;;;;;;;18.00;39.64;101444.47;4827225;28;101841;-79
2021/06/26 10:06:46;;;;;;;11.15;9.75;;;;;;;17.99;39.71;101442.66;4822666;29;100705;-77
2021/06/26 10:09:14;;;;;;;10.38;9.38;;;;;;;17.99;39.77;101438.19;4820854;29;97972;-78
2021/06/26 10:11:43;;;;;;;9.48;8.57;;;;;;;18.00;39.53;101441.78;4817680;29;97222;-80
2021/06/26 10:14:13;;;;;;;9.95;9.10;;;;;;;18.05;39.54;101440.03;4834884;29;97718;-81
2021/06/26 10:16:41;;;;;;;10.68;9.68;;;;;;;18.08;39.37;101436.41;4837181;29;99545;-81
2021/06/26 10:19:11;;;;;;;10.20;9.20;;;;;;;18.14;39.61;101441.81;4848505;28;98569;-78
2021/06/26 10:21:39;;;;;;;10.02;9.02;;;;;;;18.21;39.29;101440.91;4832429;29;96974;-79
2021/06/26 10:24:11;;;;;;;9.75;8.80;;;;;;;18.28;39.48;101440.00;4823789;29;98031;-77
2021/06/26 10:26:41;;;;;;;9.70;8.77;;;;;;;18.35;39.24;101441.84;4822211;29;97715;-77
2021/06/26 10:29:08;;;;;;;10.05;9.13;;;;;;;18.39;39.08;101439.13;4835026;28;97850;-78
2021/06/26 10:31:39;;;;;;;27.05;23.05;;;;;;;18.42;38.63;101447.19;4830266;29;97612;-78
2021/06/26 10:34:09;;;;;;;13.73;10.40;;;;;;;18.48;38.65;101443.59;4829035;28;98935;-77
2021/06/26 10:36:37;;;;;;;11.60;9.50;;;;;;;18.53;38.83;101441.81;4825561;29;97655;-80
2021/06/26 10:39:17;;;;;;;10.68;9.68;;;;;;;18.59;38.27;101439.09;4833131;29;97332;-79
2021/06/26 10:41:57;;;;;;;9.88;8.77;;;;;;;18.65;38.06;101441.78;4829763;29;96857;-80
2021/06/26 10:44:25;;;;;;;10.50;9.50;;;;;;;18.68;38.13;101431.94;4820232;29;98870;-79
2021/06/26 10:46:54;;;;;;;9.93;9.02;;;;;;;18.74;38.40;101436.41;4822244;29;99434;-77
2021/06/26 10:49:29;;;;;;;9.50;8.50;;;;;;;18.70;34.03;101434.63;4824382;29;97113;-75
2021/06/26 10:52:07;;;;;;;7.80;7.10;;;;;;;18.71;37.19;101428.34;4802792;29;97929;-78
2021/06/26 10:54:36;;;;;;;9.02;8.23;;;;;;;18.74;37.70;101431.94;4838196;28;99533;-76
2021/06/26 10:57:06;;;;;;;8.43;7.72;;;;;;;18.78;37.92;101432.81;4805124;29;101258;-76
2021/06/26 10:59:34;;;;;;;7.85;7.15;;;;;;;18.80;37.74;101433.72;4826374;29;97169;-77
2021/06/26 11:02:04;;;;;;;8.00;7.30;;;;;;;18.83;37.47;101431.91;4824056;29;97764;-76
2021/06/26 11:04:33;;;;;;;10.45;9.32;;;;;;;18.87;37.51;101433.69;4827550;29;100582;-76
2021/06/26 11:07:06;;;;;;;9.77;8.93;;;;;;;18.90;37.33;101424.69;4841482;28;97670;-78
2021/06/26 11:09:38;;;;;;;9.68;8.52;;;;;;;18.96;37.27;101427.38;4827071;29;97181;-78
2021/06/26 11:12:10;;;;;;;8.23;7.40;;;;;;;19.07;37.05;101422.84;4827111;29;97550;-75
2021/06/26 11:14:48;;;;;;;7.53;6.82;;;;;;;19.17;36.56;101419.19;4819547;29;101049;-76
2021/06/26 11:17:17;;;;;;;10.05;8.90;;;;;;;19.24;36.45;101418.28;4822800;29;99678;-79